Time;durP1;ratioP1;P1;durP2;ratioP2;P2;SDS_P1;SDS_P2;PMS_P1;PMS_P2;Temp;Humidity;BMP_temperature;BMP_pressure;BME280_temperature;BME280_humidity;BME280_pressure;Samples;Min_cycle;Max_cycle;Signal;HPM_P1;HPM_P2
2023/11/25 00:03:39;;;;;;;9.40;4.40;;;;;;;4.17;68.38;96947.85;234232;215;149476;-62
2023/11/25 00:08:42;;;;;;;7.80;4.10;;;;;;;4.25;68.36;96944.45;234216;216;141933;-61
2023/11/25 00:13:45;;;;;;;7.80;4.10;;;;;;;4.41;67.55;96937.05;234267;216;138076;-60
2023/11/25 00:18:49;;;;;;;8.40;4.10;;;;;;;4.53;66.98;96928.10;234002;216;149555;-60
2023/11/25 00:23:52;;;;;;;9.90;4.10;;;;;;;4.60;66.62;96933.95;234176;216;138840;-60
2023/11/25 00:28:56;;;;;;;9.70;4.50;;;;;;;4.58;66.07;96941.26;233637;214;136943;-61
2023/11/25 00:33:59;;;;;;;7.30;3.70;;;;;;;4.64;65.83;96937.85;234389;216;149203;-58
2023/11/25 00:39:05;;;;;;;7.80;3.50;;;;;;;4.66;65.37;96935.42;234280;216;140613;-59
2023/11/25 00:44:08;;;;;;;6.90;3.50;;;;;;;4.64;65.21;96936.61;234306;215;137430;-59
2023/11/25 00:49:13;;;;;;;6.50;3.20;;;;;;;4.68;64.93;96933.52;234114;216;149896;-59
2023/11/25 00:54:17;;;;;;;6.70;3.20;;;;;;;4.67;64.87;96927.09;233962;214;140079;-59
2023/11/25 00:59:21;;;;;;;7.50;3.00;;;;;;;4.64;64.72;96917.46;234226;215;138123;-59
2023/11/25 01:04:24;;;;;;;5.90;2.50;;;;;;;4.65;64.64;96911.09;234410;214;149527;-59
2023/11/25 01:09:30;;;;;;;6.70;3.00;;;;;;;4.65;64.66;96904.77;234271;216;138789;-59
2023/11/25 01:14:33;;;;;;;;;;;;;;;4.66;64.56;96898.16;234304;216;138547;-59
2023/11/25 01:19:37;;;;;;;6.30;2.50;;;;;;;4.63;64.56;96895.21;234355;216;149867;-59
2023/11/25 01:24:40;;;;;;;5.10;2.60;;;;;;;4.59;64.77;96900.46;234251;216;139462;-59
2023/11/25 01:29:43;;;;;;;5.60;3.00;;;;;;;4.54;64.96;96901.35;234274;216;136776;-59
2023/11/25 01:34:46;;;;;;;5.70;3.10;;;;;;;4.43;65.26;96901.27;234219;214;150427;-59
2023/11/25 01:39:50;;;;;;;6.60;2.80;;;;;;;4.35;65.64;96900.75;234371;216;142081;-59
2023/11/25 01:44:53;;;;;;;7.20;3.50;;;;;;;4.33;65.97;96898.48;234208;216;136677;-59
2023/11/25 01:49:57;;;;;;;7.10;3.20;;;;;;;4.35;66.53;96906.39;234201;216;150075;-59
2023/11/25 01:55:01;;;;;;;6.20;3.30;;;;;;;4.44;66.56;96906.78;234255;216;138981;-59
2023/11/25 02:00:07;;;;;;;6.70;3.50;;;;;;;4.56;66.50;96898.23;234288;216;138018;-59
2023/11/25 02:05:14;;;;;;;6.50;3.80;;;;;;;4.62;66.54;96892.71;234326;216;149919;-59
2023/11/25 02:10:19;;;;;;;7.90;4.10;;;;;;;4.66;66.41;96890.09;234361;216;139573;-59
2023/11/25 02:15:24;;;;;;;10.10;4.00;;;;;;;4.68;66.45;96884.87;234291;214;137077;-59
2023/11/25 02:20:38;;;;;;;7.60;3.90;;;;;;;4.68;66.54;96875.23;234193;216;149521;-59
2023/11/25 02:25:44;;;;;;;6.30;3.50;;;;;;;4.65;66.55;96870.34;234159;216;140173;-59
2023/11/25 02:30:48;;;;;;;5.60;3.50;;;;;;;4.61;66.46;96863.79;234206;216;137767;-59
2023/11/25 02:35:52;;;;;;;6.70;3.80;;;;;;;4.59;66.60;96872.23;234273;209;149853;-59
2023/11/25 02:40:55;;;;;;;5.90;3.50;;;;;;;4.59;66.64;96876.41;234278;214;138774;-59
2023/11/25 02:45:59;;;;;;;8.60;3.90;;;;;;;4.58;66.72;96881.91;234316;214;136935;-60
2023/11/25 02:51:02;;;;;;;6.00;3.50;;;;;;;4.55;66.63;96892.83;234261;214;149167;-59
2023/11/25 02:56:06;;;;;;;6.20;3.70;;;;;;;4.49;66.65;96898.16;234230;216;139376;-62
2023/11/25 03:01:11;;;;;;;6.60;3.60;;;;;;;4.45;66.99;96896.02;234210;214;136813;-62
2023/11/25 03:06:19;;;;;;;6.60;3.50;;;;;;;4.41;67.16;96904.34;234163;214;149631;-62
2023/11/25 03:11:23;;;;;;;7.10;3.60;;;;;;;4.44;67.50;96910.28;234228;217;139437;-61
2023/11/25 03:16:29;;;;;;;5.70;3.60;;;;;;;4.52;67.67;96908.37;234364;216;137018;-61
2023/11/25 03:21:33;;;;;;;7.00;3.60;;;;;;;4.52;67.98;96908.88;234242;216;149362;-61
2023/11/25 03:26:37;;;;;;;5.90;3.60;;;;;;;4.50;68.28;96907.55;234170;216;137622;-60
2023/11/25 03:31:43;;;;;;;6.70;3.40;;;;;;;4.46;68.52;96912.42;234201;214;137568;-62
2023/11/25 03:36:47;;;;;;;5.70;3.60;;;;;;;4.41;68.51;96911.39;234230;216;149136;-62
2023/11/25 03:41:50;;;;;;;6.40;3.40;;;;;;;4.43;68.67;96907.05;234194;216;139906;-62
2023/11/25 03:46:53;;;;;;;5.40;2.90;;;;;;;4.48;68.81;96910.35;234263;216;136954;-61
2023/11/25 03:51:57;;;;;;;6.00;2.80;;;;;;;4.49;68.81;96916.09;234351;216;150781;-62
2023/11/25 03:57:00;;;;;;;5.30;2.60;;;;;;;4.52;68.85;96918.66;234170;216;139151;-61
2023/11/25 04:02:04;;;;;;;4.80;2.40;;;;;;;4.53;68.91;96920.38;234260;216;138033;-59
2023/11/25 04:07:08;;;;;;;5.20;2.60;;;;;;;4.46;69.19;96921.36;234231;216;150092;-59
2023/11/25 04:12:11;;;;;;;3.20;2.00;;;;;;;4.39;69.41;96926.66;234225;216;138692;-59
2023/11/25 04:17:14;;;;;;;7.30;2.70;;;;;;;4.50;69.45;96928.48;234267;214;137984;-59
2023/11/25 04:22:18;;;;;;;4.60;2.50;;;;;;;4.61;69.35;96926.29;234404;216;149870;-59
2023/11/25 04:27:26;;;;;;;6.90;2.80;;;;;;;4.60;68.90;96934.10;234274;213;138671;-59
2023/11/25 04:32:29;;;;;;;6.50;2.80;;;;;;;4.60;69.15;96937.81;234239;214;137968;-59
2023/11/25 04:37:34;;;;;;;7.00;2.80;;;;;;;4.57;69.21;96945.39;234180;216;149931;-59
2023/11/25 04:42:39;;;;;;;6.70;2.60;;;;;;;4.55;69.20;96945.02;234236;213;138906;-59
2023/11/25 04:47:47;;;;;;;6.70;2.60;;;;;;;4.43;69.30;96951.26;234209;216;137792;-59
2023/11/25 04:52:50;;;;;;;4.40;2.30;;;;;;;4.37;69.40;96954.38;234292;215;149933;-58
2023/11/25 04:57:55;;;;;;;5.20;2.40;;;;;;;4.30;69.42;96965.40;234344;215;138857;-59
2023/11/25 05:02:58;;;;;;;4.00;2.70;;;;;;;4.27;69.51;96964.50;234295;214;138003;-59
2023/11/25 05:08:01;;;;;;;5.50;2.70;;;;;;;4.32;69.41;96974.85;234130;216;149863;-59
2023/11/25 05:13:04;;;;;;;5.90;3.20;;;;;;;4.41;69.14;96986.73;234286;214;139581;-62
2023/11/25 05:18:07;;;;;;;4.70;2.70;;;;;;;4.37;69.07;96991.55;234130;216;137952;-62
2023/11/25 05:23:09;;;;;;;6.10;2.80;;;;;;;4.37;69.10;97004.17;234174;214;148079;-61
2023/11/25 05:28:13;;;;;;;3.30;2.40;;;;;;;4.39;69.17;97006.03;234300;216;139345;-63
2023/11/25 05:33:16;;;;;;;5.50;2.80;;;;;;;4.36;69.25;97017.64;234173;216;138203;-61
2023/11/25 05:38:19;;;;;;;4.90;2.80;;;;;;;4.36;69.40;97027.64;234282;214;149109;-61
2023/11/25 05:43:25;;;;;;;5.00;2.90;;;;;;;4.39;69.46;97032.14;234188;216;138817;-61
2023/11/25 05:48:28;;;;;;;4.90;2.80;;;;;;;4.35;69.67;97048.39;234227;216;137665;-62
2023/11/25 05:53:31;;;;;;;4.50;2.70;;;;;;;4.31;70.00;97072.04;234220;213;149475;-62
2023/11/25 05:58:34;;;;;;;3.60;2.60;;;;;;;4.24;69.90;97077.97;234319;214;139475;-62
2023/11/25 06:03:42;;;;;;;3.30;2.20;;;;;;;4.20;69.66;97083.29;234210;216;137573;-62
2023/11/25 06:08:46;;;;;;;3.80;2.40;;;;;;;4.22;69.46;97088.23;234277;216;150931;-62
2023/11/25 06:13:49;;;;;;;3.50;2.60;;;;;;;4.34;69.01;97094.61;234213;216;138582;-62
2023/11/25 06:18:54;;;;;;;3.10;2.10;;;;;;;4.44;68.17;97108.70;234219;214;137404;-62
2023/11/25 06:24:00;;;;;;;3.60;1.50;;;;;;;4.46;67.57;97119.63;234297;213;149350;-59
2023/11/25 06:29:03;;;;;;;1.50;1.20;;;;;;;4.41;67.32;97126.98;234210;216;140010;-61
2023/11/25 06:34:07;;;;;;;1.60;1.20;;;;;;;4.35;67.11;97143.38;234435;215;137048;-59
2023/11/25 06:39:14;;;;;;;1.90;1.00;;;;;;;4.21;66.30;97152.77;234043;214;150311;-59
2023/11/25 06:44:18;;;;;;;3.40;1.40;;;;;;;3.93;66.61;97156.48;233825;214;139483;-59
2023/11/25 06:49:21;;;;;;;2.50;1.40;;;;;;;3.85;66.58;97173.67;234233;214;137761;-59
2023/11/25 06:54:24;;;;;;;2.90;1.40;;;;;;;3.72;66.81;97181.52;234291;214;149284;-59
2023/11/25 06:59:27;;;;;;;2.40;1.30;;;;;;;3.71;67.05;97191.45;234230;214;138428;-59
2023/11/25 07:04:30;;;;;;;3.10;1.30;;;;;;;3.74;66.61;97201.75;234436;215;137888;-59
2023/11/25 07:09:34;;;;;;;1.90;1.30;;;;;;;3.74;66.13;97204.91;234322;214;149806;-59
2023/11/25 07:14:37;;;;;;;5.00;1.60;;;;;;;3.77;65.57;97215.79;234165;214;140388;-59
2023/11/25 07:19:44;;;;;;;2.90;1.80;;;;;;;3.86;65.23;97226.29;234304;215;136598;-59
2023/11/25 07:24:47;;;;;;;3.90;2.00;;;;;;;3.84;64.29;97229.55;234258;216;149821;-59
2023/11/25 07:29:50;;;;;;;3.00;1.90;;;;;;;3.84;64.13;97240.04;234229;216;140220;-59
2023/11/25 07:34:53;;;;;;;4.80;1.70;;;;;;;3.85;63.85;97253.68;234300;216;137446;-55
2023/11/25 07:39:57;;;;;;;5.70;2.50;;;;;;;3.84;64.20;97263.27;234392;216;150128;-55
2023/11/25 07:45:00;;;;;;;4.70;2.20;;;;;;;3.76;64.86;97274.77;234065;214;141070;-55
2023/11/25 07:50:04;;;;;;;6.00;2.30;;;;;;;3.67;64.65;97274.10;234234;215;138159;-54
2023/11/25 07:55:08;;;;;;;4.90;2.50;;;;;;;3.56;63.23;97267.42;234292;216;151083;-55
2023/11/25 08:00:15;;;;;;;7.70;3.30;;;;;;;3.49;62.56;97273.67;234298;216;140334;-55
2023/11/25 08:05:22;;;;;;;4.00;2.00;;;;;;;3.51;61.97;97281.60;234243;216;137628;-56
2023/11/25 08:10:31;;;;;;;2.70;1.70;;;;;;;3.53;61.35;97279.17;234342;214;149329;-56
2023/11/25 08:15:34;;;;;;;2.70;1.60;;;;;;;3.47;61.07;97295.15;234236;214;139018;-55
2023/11/25 08:20:39;;;;;;;3.10;1.50;;;;;;;3.50;61.04;97303.54;234247;216;137781;-55
2023/11/25 08:25:43;;;;;;;8.90;4.90;;;;;;;3.57;61.18;97314.21;234191;216;149326;-54
2023/11/25 08:30:46;;;;;;;3.80;1.40;;;;;;;3.54;61.13;97327.19;234218;216;138872;-55
2023/11/25 08:35:49;;;;;;;4.40;1.60;;;;;;;3.56;61.27;97339.70;234291;216;136910;-56
2023/11/25 08:40:52;;;;;;;4.10;2.10;;;;;;;3.55;61.13;97350.60;234264;213;150297;-56
2023/11/25 08:45:56;;;;;;;3.80;2.00;;;;;;;3.51;61.29;97364.35;234193;213;140202;-55
2023/11/25 08:50:59;;;;;;;4.80;2.00;;;;;;;3.53;61.02;97375.98;234223;216;138436;-56
2023/11/25 08:56:03;;;;;;;4.30;2.00;;;;;;;3.49;61.55;97387.27;234251;216;150015;-55
2023/11/25 09:01:07;;;;;;;6.40;2.60;;;;;;;3.54;62.08;97395.39;234214;216;138925;-56
2023/11/25 09:06:12;;;;;;;5.00;2.60;;;;;;;3.65;61.75;97401.23;234305;215;137495;-54
2023/11/25 09:11:15;;;;;;;4.10;2.60;;;;;;;3.81;61.29;97397.27;234262;214;150943;-53
2023/11/25 09:16:18;;;;;;;6.70;2.80;;;;;;;3.81;61.24;97404.25;234336;216;138858;-52
2023/11/25 09:21:22;;;;;;;6.40;2.80;;;;;;;3.86;60.93;97406.06;234198;213;137540;-52
2023/11/25 09:26:25;;;;;;;6.30;2.80;;;;;;;3.87;61.07;97415.96;234248;212;149558;-58
2023/11/25 09:31:29;;;;;;;5.20;2.60;;;;;;;3.91;60.71;97414.19;234156;212;141273;-53
2023/11/25 09:36:32;;;;;;;5.80;2.30;;;;;;;4.03;60.93;97419.27;234217;209;138242;-52
2023/11/25 09:41:36;;;;;;;4.00;2.40;;;;;;;4.04;60.22;97419.52;234227;212;150359;-54
2023/11/25 09:46:40;;;;;;;3.90;2.60;;;;;;;3.95;59.97;97419.39;234319;208;139122;-54
2023/11/25 09:51:48;;;;;;;6.20;2.90;;;;;;;3.94;59.85;97413.98;234241;214;136939;-54
2023/11/25 09:56:52;;;;;;;25.00;12.70;;;;;;;3.96;59.70;97411.74;234212;214;149819;-54
2023/11/25 10:01:57;;;;;;;4.50;2.90;;;;;;;3.99;59.62;97409.11;234172;214;138650;-55
2023/11/25 10:07:01;;;;;;;;;;;;;;;3.95;59.57;97405.33;234236;214;137792;-56
2023/11/25 10:12:09;;;;;;;4.90;3.00;;;;;;;3.95;59.23;97404.96;234269;215;151119;-55
2023/11/25 10:17:17;;;;;;;5.80;3.20;;;;;;;3.92;59.22;97412.73;234176;214;139876;-54
2023/11/25 10:22:20;;;;;;;9.10;3.30;;;;;;;4.01;59.57;97412.67;234238;214;137658;-55
2023/11/25 10:27:24;;;;;;;8.00;3.50;;;;;;;4.18;59.33;97410.58;234176;213;150802;-54
2023/11/25 10:32:27;;;;;;;6.40;3.30;;;;;;;4.32;58.61;97417.98;234210;213;140263;-56
2023/11/25 10:37:32;;;;;;;5.50;3.10;;;;;;;4.29;58.09;97422.70;234210;214;137831;-55
2023/11/25 10:42:36;;;;;;;4.30;3.10;;;;;;;4.24;57.73;97428.42;234178;213;149063;-54
2023/11/25 10:47:40;;;;;;;5.30;3.00;;;;;;;4.27;58.26;97428.45;234188;214;138789;-54
2023/11/25 10:52:44;;;;;;;6.50;3.00;;;;;;;4.37;57.87;97431.11;234238;209;138206;-56
2023/11/25 10:57:48;;;;;;;4.20;2.80;;;;;;;4.46;57.54;97433.76;234138;213;150942;-54
2023/11/25 11:02:56;;;;;;;4.70;2.60;;;;;;;4.41;57.16;97431.08;234150;214;139433;-56
2023/11/25 11:08:06;;;;;;;6.50;3.30;;;;;;;4.31;57.70;97440.65;234141;216;136599;-55
2023/11/25 11:13:12;;;;;;;5.90;3.30;;;;;;;4.35;58.32;97444.96;234230;208;149266;-55
2023/11/25 11:18:23;;;;;;;7.10;3.50;;;;;;;4.28;58.75;97446.09;234193;213;140481;31
2023/11/25 11:23:28;;;;;;;6.50;4.00;;;;;;;4.29;59.99;97455.88;234278;213;137301;-54
2023/11/25 11:28:38;;;;;;;7.60;4.10;;;;;;;4.22;61.82;97459.45;234386;215;149843;-57
2023/11/25 11:33:42;;;;;;;7.50;4.40;;;;;;;4.12;62.44;97466.63;234404;213;139278;-53
2023/11/25 11:38:45;;;;;;;8.70;5.10;;;;;;;4.08;63.34;97473.17;234318;213;137096;-58
2023/11/25 11:44:07;;;;;;;8.10;5.40;;;;;;;4.01;64.39;97480.23;234310;213;150051;-58
2023/11/25 11:49:14;;;;;;;6.70;5.00;;;;;;;3.89;65.35;97480.09;234301;213;140298;-58
2023/11/25 11:54:21;;;;;;;7.00;3.50;;;;;;;3.70;66.59;97480.88;234460;213;138981;-59
2023/11/25 12:00:01;;;;;;;4.70;2.70;;;;;;;3.64;66.73;97466.84;234368;212;150605;-57
2023/11/25 12:05:07;;;;;;;7.50;3.60;;;;;;;3.67;66.08;97455.27;234340;213;138889;-58
2023/11/25 12:10:11;;;;;;;5.40;3.40;;;;;;;3.88;65.98;97451.90;234483;211;138780;-57
2023/11/25 12:15:16;;;;;;;6.50;4.10;;;;;;;4.04;65.54;97451.98;234418;215;149973;-57
2023/11/25 12:20:19;;;;;;;7.60;4.50;;;;;;;4.13;65.54;97452.30;234355;215;139161;-57
2023/11/25 12:25:23;;;;;;;12.60;4.80;;;;;;;4.26;65.24;97459.91;233908;216;137779;-56
2023/11/25 12:30:27;;;;;;;7.30;3.70;;;;;;;4.38;64.43;97450.05;234215;215;149231;-56
2023/11/25 12:35:31;;;;;;;4.80;2.80;;;;;;;4.53;63.88;97438.04;234311;214;138697;-56
2023/11/25 12:40:36;;;;;;;5.10;2.60;;;;;;;4.67;62.79;97439.41;234447;215;138296;-56
2023/11/25 12:45:45;;;;;;;5.10;2.90;;;;;;;4.64;61.45;97438.92;234293;216;151313;-56
2023/11/25 12:51:06;;;;;;;8.30;3.80;;;;;;;4.45;60.27;97440.65;234235;215;138775;-55
2023/11/25 12:56:14;;;;;;;3.80;2.50;;;;;;;4.32;60.59;97444.96;234208;215;137648;-56
2023/11/25 13:01:23;;;;;;;5.40;2.60;;;;;;;4.06;61.35;97451.84;234322;214;151200;-55
2023/11/25 13:06:26;;;;;;;5.60;2.40;;;;;;;3.94;62.74;97450.66;234303;214;139666;-56
2023/11/25 13:11:29;;;;;;;6.10;3.10;;;;;;;3.89;63.39;97442.86;234382;213;136801;-56
2023/11/25 13:16:35;;;;;;;5.40;3.30;;;;;;;3.83;63.89;97443.98;234391;215;149798;-53
2023/11/25 13:21:40;;;;;;;5.40;3.30;;;;;;;3.84;63.86;97441.30;234208;215;138963;-55
2023/11/25 13:26:43;;;;;;;11.20;3.20;;;;;;;3.74;63.70;97435.39;234221;215;137473;-55
2023/11/25 13:31:46;;;;;;;5.00;2.70;;;;;;;3.70;63.06;97435.98;233702;213;150307;-55
2023/11/25 13:36:52;;;;;;;7.80;2.80;;;;;;;3.68;62.35;97436.98;234290;215;139019;-55
2023/11/25 13:41:55;;;;;;;4.90;2.40;;;;;;;3.72;61.93;97441.98;234345;215;137922;-55
2023/11/25 13:46:58;;;;;;;5.90;2.90;;;;;;;3.76;61.45;97453.15;234307;215;149388;-60
2023/11/25 13:52:02;;;;;;;6.10;3.10;;;;;;;3.81;61.24;97461.60;234345;215;140828;-59
2023/11/25 13:57:05;;;;;;;5.20;3.10;;;;;;;3.85;61.21;97463.31;234267;215;139336;-59
2023/11/25 14:02:08;;;;;;;9.30;3.70;;;;;;;3.88;61.18;97474.92;234279;215;149940;-59
2023/11/25 14:07:12;;;;;;;8.10;3.70;;;;;;;3.91;61.14;97484.15;234327;215;139322;-59
2023/11/25 14:12:15;;;;;;;6.40;3.30;;;;;;;3.90;61.31;97484.37;234366;215;137188;-60
2023/11/25 14:17:20;;;;;;;8.50;3.70;;;;;;;3.92;61.42;97491.84;234174;214;149647;-59
2023/11/25 14:22:23;;;;;;;6.40;3.70;;;;;;;3.95;61.31;97495.14;234328;213;138870;-59
2023/11/25 14:27:26;;;;;;;7.30;3.70;;;;;;;3.91;61.38;97493.99;234224;216;136882;-60
2023/11/25 14:32:30;;;;;;;7.40;3.80;;;;;;;3.88;61.36;97490.35;234238;216;150553;-59
2023/11/25 14:37:33;;;;;;;7.70;3.10;;;;;;;3.85;61.30;97491.00;234167;216;139673;-60
2023/11/25 14:42:38;;;;;;;6.40;3.20;;;;;;;3.86;61.12;97490.45;234249;213;136863;-62
2023/11/25 14:47:43;;;;;;;5.50;2.70;;;;;;;3.79;60.84;97494.20;234142;215;149127;-62
2023/11/25 14:52:47;;;;;;;6.10;2.80;;;;;;;3.78;60.72;97497.75;234293;216;140231;-60
2023/11/25 14:57:50;;;;;;;7.00;2.70;;;;;;;3.82;60.06;97503.31;234248;216;136489;-61
2023/11/25 15:02:53;;;;;;;5.40;2.50;;;;;;;3.77;59.88;97507.27;234214;209;149156;-61
2023/11/25 15:07:56;;;;;;;4.70;3.10;;;;;;;3.75;59.86;97518.10;234143;214;138938;-61
2023/11/25 15:13:00;;;;;;;4.50;2.80;;;;;;;3.74;60.16;97520.42;234183;215;136972;-62
2023/11/25 15:18:05;;;;;;;5.30;3.60;;;;;;;3.70;60.40;97523.48;234158;208;149257;-59
2023/11/25 15:23:09;;;;;;;8.10;4.10;;;;;;;3.65;60.57;97524.69;234147;216;140400;-62
2023/11/25 15:28:15;;;;;;;8.40;4.40;;;;;;;3.64;60.79;97527.89;234396;215;137909;-61
2023/11/25 15:33:19;;;;;;;9.00;4.60;;;;;;;3.66;61.01;97538.48;234181;213;149033;-61
2023/11/25 15:38:22;;;;;;;9.50;4.30;;;;;;;3.62;61.08;97543.42;234298;213;138655;-61
2023/11/25 15:43:25;;;;;;;8.30;4.30;;;;;;;3.61;61.01;97540.52;234232;216;136387;-62
2023/11/25 15:48:28;;;;;;;7.40;5.20;;;;;;;3.56;61.01;97545.52;234219;213;149058;-62
2023/11/25 15:53:32;;;;;;;7.10;5.00;;;;;;;3.51;61.08;97541.38;234207;207;139431;-60
2023/11/25 15:58:36;;;;;;;10.80;5.90;;;;;;;3.50;61.22;97543.92;234282;215;137827;-60
2023/11/25 16:03:39;;;;;;;8.80;5.30;;;;;;;3.43;61.41;97548.20;234194;209;149440;-61
2023/11/25 16:08:42;;;;;;;8.10;5.70;;;;;;;3.39;61.60;97551.09;234125;213;140051;-61
2023/11/25 16:13:45;;;;;;;11.50;5.70;;;;;;;3.31;61.70;97550.44;234222;212;137069;-61
2023/11/25 16:18:49;;;;;;;9.40;6.30;;;;;;;3.28;61.98;97554.63;234104;213;149547;-61
2023/11/25 16:23:52;;;;;;;10.20;6.10;;;;;;;3.28;61.95;97559.18;234154;214;139155;-61
2023/11/25 16:28:55;;;;;;;9.10;6.20;;;;;;;3.29;62.02;97554.42;234091;213;137835;-61
2023/11/25 16:33:58;;;;;;;14.30;7.70;;;;;;;3.30;62.19;97559.83;234216;213;149267;-59
2023/11/25 16:39:02;;;;;;;13.40;7.90;;;;;;;3.30;62.46;97560.36;234160;215;139817;-60
2023/11/25 16:44:05;;;;;;;14.20;8.10;;;;;;;3.31;62.78;97563.42;234196;213;136784;-61
2023/11/25 16:49:09;;;;;;;12.50;7.80;;;;;;;3.32;62.95;97569.14;234215;215;148981;-62
2023/11/25 16:54:15;;;;;;;12.10;7.40;;;;;;;3.32;63.20;97568.63;234115;214;139321;-61
2023/11/25 16:59:18;;;;;;;14.30;8.40;;;;;;;3.31;63.32;97574.63;234202;215;137732;-63
2023/11/25 17:04:22;;;;;;;17.00;9.00;;;;;;;3.29;63.58;97583.70;234296;213;149876;-59
2023/11/25 17:09:25;;;;;;;15.20;8.80;;;;;;;3.25;63.76;97585.64;234082;214;139311;-58
2023/11/25 17:14:28;;;;;;;12.90;8.00;;;;;;;3.18;64.13;97580.98;234235;215;137393;-58
2023/11/25 17:19:31;;;;;;;12.60;8.50;;;;;;;3.13;64.39;97580.42;234174;216;149384;-60
2023/11/25 17:24:35;;;;;;;12.80;8.50;;;;;;;3.07;64.87;97591.73;234164;216;138837;-58
2023/11/25 17:29:38;;;;;;;13.90;8.80;;;;;;;3.03;65.18;97583.59;234117;215;137740;-62
2023/11/25 17:34:43;;;;;;;15.60;9.30;;;;;;;3.02;65.47;97583.11;234160;213;149403;-58
2023/11/25 17:39:48;;;;;;;13.70;9.10;;;;;;;3.03;65.61;97587.40;234127;208;139105;-56
2023/11/25 17:44:51;;;;;;;17.30;9.40;;;;;;;3.04;65.69;97591.76;234220;215;138211;-59
2023/11/25 17:49:54;;;;;;;14.70;8.90;;;;;;;3.06;65.89;97594.42;234227;215;149151;-59
2023/11/25 17:54:58;;;;;;;17.70;10.80;;;;;;;3.16;65.92;97599.84;234158;215;138951;-57
2023/11/25 18:00:02;;;;;;;15.30;10.20;;;;;;;3.17;65.97;97604.16;234243;215;138800;-57
2023/11/25 18:05:09;;;;;;;16.40;10.40;;;;;;;3.13;66.04;97612.29;234104;215;150211;-63
2023/11/25 18:10:13;;;;;;;17.70;10.20;;;;;;;3.11;66.37;97615.77;234234;215;139326;-59
2023/11/25 18:15:17;;;;;;;14.70;10.30;;;;;;;3.08;66.41;97610.75;234138;212;136970;-61
2023/11/25 18:20:20;;;;;;;15.70;10.00;;;;;;;3.10;66.50;97605.12;234261;215;150126;-62
2023/11/25 18:25:24;;;;;;;15.90;10.10;;;;;;;3.11;66.49;97607.84;234179;212;138832;-61
2023/11/25 18:30:27;;;;;;;15.50;10.30;;;;;;;3.07;66.74;97610.17;234252;213;137935;-63
2023/11/25 18:35:30;;;;;;;15.00;10.00;;;;;;;3.06;66.68;97603.86;234259;216;150028;-62
2023/11/25 18:40:33;;;;;;;14.70;9.30;;;;;;;3.02;66.70;97602.34;234273;216;140238;-62
2023/11/25 18:45:37;;;;;;;12.70;9.20;;;;;;;3.03;66.57;97605.48;234064;216;137012;-60
2023/11/25 18:50:40;;;;;;;15.40;10.00;;;;;;;3.01;66.49;97612.59;234226;209;149647;-60
2023/11/25 18:55:43;;;;;;;15.40;9.50;;;;;;;2.94;66.62;97610.17;234165;214;138903;-61
2023/11/25 19:00:48;;;;;;;16.40;10.20;;;;;;;2.92;66.74;97606.95;234145;210;137382;-60
2023/11/25 19:05:52;;;;;;;14.90;8.60;;;;;;;3.00;66.78;97616.13;234264;216;151353;-60
2023/11/25 19:10:55;;;;;;;17.70;10.60;;;;;;;3.19;66.40;97622.48;234158;214;139425;-61
2023/11/25 19:15:58;;;;;;;16.30;9.20;;;;;;;3.36;66.10;97629.21;234287;216;139083;-61
2023/11/25 19:21:02;;;;;;;16.90;10.20;;;;;;;3.41;65.82;97634.38;234064;213;149623;-59
2023/11/25 19:26:05;;;;;;;14.70;9.00;;;;;;;3.44;65.72;97630.35;234208;216;138849;-59
2023/11/25 19:31:09;;;;;;;17.80;9.10;;;;;;;3.38;65.86;97629.66;234186;215;137729;-58
2023/11/25 19:36:12;;;;;;;15.20;9.50;;;;;;;3.33;66.06;97634.48;234161;213;149801;-59
2023/11/25 19:41:15;;;;;;;14.40;8.50;;;;;;;3.24;66.40;97635.84;234061;209;139184;-59
2023/11/25 19:46:18;;;;;;;13.70;9.10;;;;;;;3.14;66.73;97629.77;234230;213;137863;-59
2023/11/25 19:51:21;;;;;;;17.20;9.80;;;;;;;3.05;67.00;97621.30;234157;212;149207;-59
2023/11/25 19:56:25;;;;;;;14.80;8.90;;;;;;;3.03;67.30;97622.98;234113;213;139214;-59
2023/11/25 20:01:28;;;;;;;14.80;8.50;;;;;;;3.05;67.10;97627.75;234216;214;136986;-60
2023/11/25 20:06:31;;;;;;;14.80;8.80;;;;;;;3.01;67.02;97623.27;234149;216;149753;-60
2023/11/25 20:11:36;;;;;;;13.50;8.80;;;;;;;2.99;67.22;97622.34;234125;214;138700;-59
2023/11/25 20:16:40;;;;;;;14.40;8.20;;;;;;;2.99;67.28;97614.95;234269;215;136635;-59
2023/11/25 20:21:43;;;;;;;12.80;7.40;;;;;;;3.03;67.20;97615.08;234062;214;149829;-60
2023/11/25 20:26:46;;;;;;;15.70;8.90;;;;;;;3.02;67.08;97619.36;234155;214;138757;-60
2023/11/25 20:31:49;;;;;;;17.50;10.00;;;;;;;3.08;67.17;97622.02;234225;215;138890;-60
2023/11/25 20:36:53;;;;;;;20.20;11.90;;;;;;;3.17;67.21;97622.57;234189;214;149611;-60
2023/11/25 20:41:57;;;;;;;21.10;12.40;;;;;;;3.17;67.11;97619.08;234114;213;138884;-59
2023/11/25 20:47:00;;;;;;;21.30;12.60;;;;;;;3.16;67.39;97623.69;234172;213;137926;-61
2023/11/25 20:52:04;;;;;;;20.10;12.60;;;;;;;3.14;67.37;97618.39;234340;216;149984;-60
2023/11/25 20:57:11;;;;;;;22.20;13.10;;;;;;;3.12;67.49;97615.83;234153;216;138942;-59
2023/11/25 21:02:15;;;;;;;22.10;12.60;;;;;;;3.07;67.36;97618.34;234208;213;136891;-61
2023/11/25 21:07:18;;;;;;;21.00;13.60;;;;;;;3.02;67.45;97625.15;234143;214;149892;-60
2023/11/25 21:12:22;;;;;;;21.30;13.90;;;;;;;2.96;67.78;97633.35;234206;216;138840;-60
2023/11/25 21:17:25;;;;;;;24.80;14.20;;;;;;;2.95;67.88;97630.41;234229;215;137480;-60
2023/11/25 21:22:29;;;;;;;21.40;13.10;;;;;;;2.96;67.94;97623.89;234268;215;149452;-60
2023/11/25 21:27:37;;;;;;;23.60;14.10;;;;;;;2.96;67.95;97625.99;234100;216;139737;-60
2023/11/25 21:32:40;;;;;;;25.50;14.00;;;;;;;2.94;67.93;97624.53;234158;216;137577;-60
2023/11/25 21:37:43;;;;;;;21.40;13.20;;;;;;;2.96;67.99;97632.97;234230;215;150647;-60
2023/11/25 21:42:47;;;;;;;24.70;13.60;;;;;;;3.02;67.95;97639.70;234177;216;140979;-63
2023/11/25 21:47:50;;;;;;;22.40;14.50;;;;;;;3.11;67.79;97643.23;234167;208;138184;-63
2023/11/25 21:52:54;;;;;;;25.20;14.30;;;;;;;3.15;67.67;97643.70;234143;216;149006;-61
2023/11/25 21:57:58;;;;;;;23.60;14.70;;;;;;;3.21;67.52;97651.28;234343;214;138697;-62
2023/11/25 22:03:02;;;;;;;24.90;16.10;;;;;;;3.24;67.48;97650.73;234116;214;136900;-62
2023/11/25 22:08:06;;;;;;;24.10;15.30;;;;;;;3.29;67.59;97649.95;234141;214;149271;-62
2023/11/25 22:13:09;;;;;;;25.60;14.40;;;;;;;3.25;67.50;97649.12;234175;216;139608;-62
2023/11/25 22:18:12;;;;;;;23.50;14.90;;;;;;;3.21;67.70;97641.96;234183;214;138441;-62
2023/11/25 22:23:16;;;;;;;24.40;15.20;;;;;;;3.22;67.61;97646.31;234173;214;149505;-63
2023/11/25 22:28:20;;;;;;;24.00;14.90;;;;;;;3.23;67.53;97643.81;234423;215;138806;-62
2023/11/25 22:33:23;;;;;;;25.00;14.50;;;;;;;3.20;67.59;97639.94;234203;216;137010;-62
2023/11/25 22:38:27;;;;;;;23.40;14.30;;;;;;;3.20;67.52;97643.28;234222;215;149392;-63
2023/11/25 22:43:30;;;;;;;22.60;14.30;;;;;;;3.24;67.47;97642.00;234190;216;139028;-63
2023/11/25 22:48:33;;;;;;;27.50;13.80;;;;;;;3.26;67.64;97638.05;234247;209;140644;-63
2023/11/25 22:53:36;;;;;;;27.40;14.30;;;;;;;3.29;67.52;97631.34;234216;216;149909;-60
2023/11/25 22:58:40;;;;;;;29.80;15.50;;;;;;;3.37;67.42;97631.48;234270;215;140065;-60
2023/11/25 23:03:44;;;;;;;26.80;16.30;;;;;;;3.46;67.26;97629.88;234211;215;137713;-60
2023/11/25 23:08:48;;;;;;;23.60;15.30;;;;;;;3.47;67.23;97632.62;234221;215;151284;-60
2023/11/25 23:13:53;;;;;;;;;;;;;;;3.48;67.22;97633.79;234179;215;139534;-60
2023/11/25 23:18:58;;;;;;;23.50;15.10;;;;;;;3.54;67.27;97632.94;234296;213;134054;-60
2023/11/25 23:24:01;;;;;;;29.00;16.10;;;;;;;3.52;67.14;97628.86;234127;216;150019;-60
2023/11/25 23:29:04;;;;;;;23.20;14.50;;;;;;;3.50;67.35;97622.12;234223;215;150137;-60
2023/11/25 23:34:07;;;;;;;26.20;15.30;;;;;;;3.44;67.85;97622.98;234339;215;137195;-59
2023/11/25 23:39:10;;;;;;;27.10;15.20;;;;;;;3.43;68.03;97624.63;234139;216;149553;-61
2023/11/25 23:44:13;;;;;;;25.70;15.50;;;;;;;3.37;68.31;97619.91;234178;216;138633;-59